Time;durP1;ratioP1;P1;durP2;ratioP2;P2;SDS_P1;SDS_P2;PMS_P1;PMS_P2;Temp;Humidity;BMP_temperature;BMP_pressure;BME280_temperature;BME280_humidity;BME280_pressure;Samples;Min_cycle;Max_cycle;Signal;HPM_P1;HPM_P2
2022/07/15 00:02:07;;;;;;;6.55;2.15;;;;;;;24.03;43.59;100619.59;5054200;28;20035;-76
2022/07/15 00:04:34;;;;;;;4.38;2.20;;;;;;;24.03;43.52;100608.59;5054227;28;20040;-75
2022/07/15 00:07:00;;;;;;;10.68;2.35;;;;;;;24.00;43.63;100614.50;5053865;28;20521;-77
2022/07/15 00:12:10;;;;;;;5.22;2.28;;;;;;;24.01;43.56;100613.44;5054049;28;20119;-77
2022/07/15 00:14:36;;;;;;;3.75;2.28;;;;;;;24.05;43.98;100606.47;5054100;28;20037;-77
2022/07/15 00:17:01;;;;;;;6.75;2.30;;;;;;;24.05;43.70;100606.47;5054085;28;20039;-76
2022/07/15 00:19:27;;;;;;;7.38;2.88;;;;;;;23.96;43.88;100608.59;5053911;28;20029;-77
2022/07/15 00:21:52;;;;;;;7.53;2.22;;;;;;;23.94;44.21;100604.38;5053917;28;20480;-76
2022/07/15 00:24:18;;;;;;;9.35;2.55;;;;;;;23.87;44.09;100598.88;5054609;28;20052;-77
2022/07/15 00:26:43;;;;;;;4.28;2.38;;;;;;;23.84;44.41;100599.31;5056633;28;20020;-77
2022/07/15 00:29:09;;;;;;;10.35;2.97;;;;;;;23.80;44.24;100592.53;5054165;28;20035;-77
2022/07/15 00:31:34;;;;;;;8.18;2.75;;;;;;;23.60;44.54;100581.56;5053705;28;20033;-76
2022/07/15 00:34:00;;;;;;;8.18;2.67;;;;;;;23.75;44.57;100603.31;5053737;28;20029;-76
2022/07/15 00:36:25;;;;;;;3.85;2.40;;;;;;;23.73;44.59;100603.50;5053527;28;20027;-76
2022/07/15 00:38:50;;;;;;;9.95;3.47;;;;;;;23.74;44.34;100596.97;5053383;28;20040;-76
2022/07/15 00:41:17;;;;;;;11.05;2.15;;;;;;;23.70;44.35;100589.34;5053371;28;20021;-78
2022/07/15 00:43:42;;;;;;;5.97;2.65;;;;;;;23.66;44.53;100582.59;5053268;28;20032;-76
2022/07/15 00:46:08;;;;;;;4.32;2.17;;;;;;;23.62;44.33;100587.66;5053218;28;20025;-76
2022/07/15 00:48:33;;;;;;;9.90;2.00;;;;;;;23.58;44.53;100589.13;5052289;28;20036;-75
2022/07/15 00:50:59;;;;;;;7.13;2.22;;;;;;;23.57;44.53;100581.13;5053302;28;20025;-75
2022/07/15 00:53:28;;;;;;;6.82;2.30;;;;;;;23.49;44.33;100582.16;5053269;28;20052;-75
2022/07/15 00:55:58;;;;;;;11.18;2.38;;;;;;;23.39;44.75;100562.53;5053031;28;20466;-75
2022/07/15 00:58:27;;;;;;;4.35;1.77;;;;;;;23.47;44.72;100583.44;5053223;28;20036;-76
2022/07/15 01:00:54;;;;;;;5.18;1.90;;;;;;;23.35;44.93;100565.84;5052908;28;20055;-75
2022/07/15 01:03:20;;;;;;;9.00;2.40;;;;;;;23.38;45.22;100581.91;5052537;28;20025;-75
2022/07/15 01:05:47;;;;;;;12.85;3.08;;;;;;;23.39;44.98;100578.13;5052406;28;20083;-76
2022/07/15 01:08:13;;;;;;;2.95;1.90;;;;;;;23.32;45.07;100564.38;5052724;28;20028;-75
2022/07/15 01:10:40;;;;;;;2.85;1.83;;;;;;;23.41;44.97;100570.53;5052621;28;20048;-76
2022/07/15 01:13:05;;;;;;;10.65;3.08;;;;;;;23.46;45.04;100574.34;5057848;28;20025;-76
2022/07/15 01:15:32;;;;;;;16.67;2.65;;;;;;;23.51;44.71;100571.84;5054676;28;20446;-77
2022/07/15 01:17:59;;;;;;;12.18;3.15;;;;;;;23.52;44.99;100570.75;5052445;28;20032;-75
2022/07/15 01:20:24;;;;;;;11.38;2.33;;;;;;;23.47;45.12;100566.97;5052353;28;20494;-76
2022/07/15 01:22:50;;;;;;;9.63;2.70;;;;;;;23.44;45.24;100570.97;5052413;28;20029;-76
2022/07/15 01:25:15;;;;;;;13.63;3.08;;;;;;;23.46;45.05;100566.09;5052286;28;20028;-76
2022/07/15 01:27:41;;;;;;;10.32;2.47;;;;;;;23.48;44.98;100565.91;5052268;28;20560;-75
2022/07/15 01:30:07;;;;;;;7.90;2.88;;;;;;;23.47;45.00;100575.19;5052246;28;20021;-76
2022/07/15 01:32:33;;;;;;;6.68;3.15;;;;;;;23.49;45.24;100573.91;5050731;28;20014;-75
2022/07/15 01:34:59;;;;;;;10.15;2.85;;;;;;;23.52;45.30;100561.66;5052014;28;20032;-75
2022/07/15 01:37:24;;;;;;;12.30;2.88;;;;;;;23.40;45.40;100552.38;5052097;28;20418;-76
2022/07/15 01:39:50;;;;;;;6.10;2.90;;;;;;;23.37;45.54;100561.00;5051780;28;20037;-76
2022/07/15 01:42:15;;;;;;;7.63;2.70;;;;;;;23.33;45.68;100564.16;5052036;28;20029;-75
2022/07/15 01:44:41;;;;;;;6.60;2.88;;;;;;;23.36;45.91;100560.19;5052449;28;20029;-76
2022/07/15 01:47:06;;;;;;;7.97;2.75;;;;;;;23.28;45.94;100563.09;5052079;28;20108;-76
2022/07/15 01:49:32;;;;;;;10.88;2.65;;;;;;;23.24;46.13;100554.44;5051775;28;20017;-75
2022/07/15 01:52:00;;;;;;;11.40;2.95;;;;;;;23.06;46.47;100545.09;5050366;28;20033;-75
2022/07/15 01:54:27;;;;;;;5.72;2.55;;;;;;;23.17;46.35;100558.22;5052015;28;20024;-76
2022/07/15 01:56:54;;;;;;;10.23;2.35;;;;;;;23.13;46.26;100555.06;5052063;28;20032;-77
2022/07/15 01:59:24;;;;;;;13.20;2.63;;;;;;;23.10;46.40;100558.22;5051887;28;20758;-77
2022/07/15 02:01:51;;;;;;;8.40;2.53;;;;;;;23.04;46.42;100544.47;5059867;28;20072;-76
2022/07/15 02:04:17;;;;;;;13.00;2.78;;;;;;;22.97;46.78;100541.72;5059733;28;20017;-75
2022/07/15 02:06:43;;;;;;;5.65;2.72;;;;;;;22.99;46.73;100556.09;5052799;28;20025;-76
2022/07/15 02:09:09;;;;;;;9.63;2.92;;;;;;;22.97;47.09;100557.31;5051826;28;20032;-76
2022/07/15 02:11:35;;;;;;;8.40;2.72;;;;;;;22.90;47.15;100557.34;5051669;28;20037;-76
2022/07/15 02:14:01;;;;;;;6.07;2.85;;;;;;;22.85;47.40;100557.09;5052010;28;20025;-75
2022/07/15 02:16:29;;;;;;;19.05;3.60;;;;;;;22.73;47.66;100553.25;5051775;28;20036;-76
2022/07/15 02:18:54;;;;;;;14.55;4.00;;;;;;;22.85;47.49;100556.22;5051548;28;20024;-75
2022/07/15 02:21:20;;;;;;;16.23;3.75;;;;;;;22.98;47.20;100559.03;5051540;28;20390;-75
2022/07/15 02:23:46;;;;;;;17.60;3.35;;;;;;;23.02;47.20;100565.78;5051164;28;20029;-76
2022/07/15 02:26:12;;;;;;;13.52;3.50;;;;;;;22.93;47.25;100550.59;5051166;28;20104;-77
2022/07/15 02:28:37;;;;;;;9.68;2.90;;;;;;;22.98;47.10;100567.25;5051132;28;20025;-75
2022/07/15 02:31:03;;;;;;;11.07;3.15;;;;;;;23.02;47.24;100565.78;5051039;28;20057;-77
2022/07/15 02:33:28;;;;;;;9.35;3.45;;;;;;;23.02;47.34;100560.31;5050967;28;20029;-76
2022/07/15 02:35:54;;;;;;;13.77;2.65;;;;;;;23.02;47.08;100561.16;5050950;28;20021;-76
2022/07/15 02:38:21;;;;;;;9.63;3.00;;;;;;;23.02;47.02;100565.78;5050847;28;20025;-76
2022/07/15 02:40:46;;;;;;;14.00;2.83;;;;;;;23.03;47.09;100556.50;5050996;28;20399;-76
2022/07/15 02:43:12;;;;;;;14.00;2.45;;;;;;;23.01;47.12;100564.94;5050967;28;20020;-77
2022/07/15 02:45:37;;;;;;;16.30;2.65;;;;;;;22.97;47.14;100549.09;5050975;28;20032;-76
2022/07/15 02:48:05;;;;;;;8.75;3.05;;;;;;;23.01;47.05;100553.97;5050896;28;20032;-76
2022/07/15 02:50:30;;;;;;;11.38;3.10;;;;;;;23.04;46.97;100559.03;5050960;28;20025;-75
2022/07/15 02:52:56;;;;;;;4.53;2.35;;;;;;;23.09;46.46;100558.41;5050846;28;20491;-78
2022/07/15 02:55:21;;;;;;;4.18;2.30;;;;;;;23.07;46.12;100555.88;5050841;28;20032;-76
2022/07/15 02:57:47;;;;;;;11.32;3.40;;;;;;;23.02;46.01;100552.94;5050740;28;20033;-75
2022/07/15 03:00:19;;;;;;;5.45;2.47;;;;;;;23.06;45.93;100556.06;5050866;28;20033;-75
2022/07/15 03:02:45;;;;;;;8.98;2.38;;;;;;;23.05;46.03;100548.91;5049513;28;20529;-75
2022/07/15 03:05:12;;;;;;;12.50;2.40;;;;;;;22.97;46.42;100552.69;5050994;28;20163;-76
2022/07/15 03:07:38;;;;;;;9.60;2.75;;;;;;;22.97;46.62;100541.72;5050814;28;20075;-76
2022/07/15 03:10:05;;;;;;;13.23;3.25;;;;;;;22.95;46.23;100545.72;5050832;28;20053;-75
2022/07/15 03:12:32;;;;;;;17.05;3.40;;;;;;;23.06;46.21;100556.06;5052255;28;20032;-76
2022/07/15 03:14:58;;;;;;;31.63;4.53;;;;;;;23.09;46.28;100555.66;5054952;28;20548;-76
2022/07/15 03:17:23;;;;;;;15.85;4.45;;;;;;;23.08;45.96;100554.00;5053719;28;20032;-76
2022/07/15 03:19:49;;;;;;;6.60;4.20;;;;;;;23.05;46.08;100541.53;5054749;28;20025;-76
2022/07/15 03:22:15;;;;;;;26.25;10.10;;;;;;;23.15;46.04;100552.09;5055023;28;20398;-76
2022/07/15 03:24:40;;;;;;;18.50;4.65;;;;;;;23.10;46.13;100544.50;5054799;28;20036;-77
2022/07/15 03:27:06;;;;;;;13.68;4.25;;;;;;;23.03;46.14;100535.41;5054496;28;20043;-78
2022/07/15 03:29:31;;;;;;;17.48;3.88;;;;;;;23.11;46.17;100550.84;5054808;28;20035;-77
2022/07/15 03:31:57;;;;;;;20.65;4.47;;;;;;;23.11;46.34;100548.09;5054708;28;20453;-77
2022/07/15 03:34:25;;;;;;;13.32;3.67;;;;;;;23.09;46.14;100544.69;5054681;28;20100;-76
2022/07/15 03:36:52;;;;;;;27.73;4.22;;;;;;;23.12;46.38;100549.75;5055715;28;20470;-75
2022/07/15 03:39:17;;;;;;;24.60;4.20;;;;;;;23.13;46.30;100559.69;5068444;28;20056;-76
2022/07/15 03:41:43;;;;;;;11.18;3.92;;;;;;;23.13;46.31;100552.31;5054983;28;20394;-76
2022/07/15 03:44:08;;;;;;;18.40;4.13;;;;;;;23.12;46.56;100550.63;5054267;28;20453;-76
2022/07/15 03:46:34;;;;;;;19.40;5.40;;;;;;;23.19;46.70;100553.38;5054007;28;20025;-77
2022/07/15 03:49:02;;;;;;;26.98;6.20;;;;;;;23.24;46.78;100550.84;5054006;28;20109;-75
2022/07/15 03:51:31;;;;;;;11.85;5.38;;;;;;;23.21;46.74;100559.50;5054061;28;20084;-76
2022/07/15 03:54:01;;;;;;;21.20;5.78;;;;;;;23.20;46.87;100552.31;5054128;28;20049;-76
2022/07/15 03:56:27;;;;;;;17.77;5.45;;;;;;;23.26;46.79;100555.09;5054092;28;20035;-76
2022/07/15 03:58:52;;;;;;;24.80;6.00;;;;;;;23.28;46.90;100557.59;5054101;28;20036;-77
2022/07/15 04:01:18;;;;;;;21.23;5.25;;;;;;;23.31;47.04;100560.78;5053746;28;20029;-76
2022/07/15 04:03:44;;;;;;;26.50;6.43;;;;;;;23.31;47.02;100565.41;5064816;28;20043;-76
2022/07/15 04:06:09;;;;;;;28.48;6.80;;;;;;;23.33;47.00;100560.59;5056294;28;20025;-76
2022/07/15 04:08:35;;;;;;;33.28;6.18;;;;;;;23.37;46.94;100553.59;5052769;28;20033;-76
2022/07/15 04:11:00;;;;;;;29.20;6.00;;;;;;;23.33;46.97;100554.25;5053724;28;20021;-76
2022/07/15 04:13:26;;;;;;;35.92;5.97;;;;;;;23.38;47.14;100565.44;5052237;28;20032;-77
2022/07/15 04:15:51;;;;;;;32.85;5.57;;;;;;;23.41;47.17;100556.81;5052410;28;20025;-76
2022/07/15 04:18:17;;;;;;;30.13;6.22;;;;;;;23.39;47.21;100551.56;5053659;28;20094;-76
2022/07/15 04:20:42;;;;;;;21.98;6.07;;;;;;;23.44;46.85;100554.50;5053691;28;20040;-77
2022/07/15 04:23:08;;;;;;;31.65;6.47;;;;;;;23.49;46.95;100570.31;5053320;28;20033;-77
2022/07/15 04:25:34;;;;;;;33.95;7.10;;;;;;;23.58;47.22;100555.34;5053561;28;20090;-77
2022/07/15 04:27:59;;;;;;;34.45;7.25;;;;;;;23.61;47.29;100555.75;5053343;28;20036;-76
2022/07/15 04:30:25;;;;;;;40.38;6.15;;;;;;;23.58;47.20;100550.69;5053227;28;20061;-76
2022/07/15 04:32:50;;;;;;;26.65;7.25;;;;;;;23.59;47.09;100568.88;5053383;28;20086;-77
2022/07/15 04:35:16;;;;;;;28.23;6.20;;;;;;;23.57;46.53;100561.91;5053366;28;20027;-77
2022/07/15 04:37:41;;;;;;;38.92;6.10;;;;;;;23.69;46.35;100562.97;5052899;28;20474;-77
2022/07/15 04:40:09;;;;;;;28.25;7.28;;;;;;;23.68;46.31;100555.78;5052816;28;20053;-76
2022/07/15 04:42:35;;;;;;;33.95;8.52;;;;;;;23.79;46.12;100564.22;5052985;28;20048;-76
2022/07/15 04:45:02;;;;;;;44.10;7.63;;;;;;;23.92;46.00;100562.50;5051300;28;20036;-77
2022/07/15 04:47:27;;;;;;;40.20;7.55;;;;;;;23.96;45.97;100559.13;5052914;28;20043;-76
2022/07/15 04:52:42;;;;;;;36.75;7.15;;;;;;;24.08;45.86;100562.06;5052987;28;20110;-76
2022/07/15 04:55:08;;;;;;;43.15;8.23;;;;;;;24.16;45.78;100564.63;5052885;28;20040;-75
2022/07/15 04:57:33;;;;;;;45.08;9.18;;;;;;;24.19;45.47;100558.69;5053053;28;20040;-76
2022/07/15 04:59:59;;;;;;;28.80;9.27;;;;;;;24.29;45.54;100548.09;5052996;28;20029;-77
2022/07/15 05:02:25;;;;;;;45.47;8.65;;;;;;;24.40;45.73;100563.94;5052955;28;20029;-77
2022/07/15 05:04:51;;;;;;;39.13;8.32;;;;;;;24.42;45.84;100570.06;5052773;28;20033;-77
2022/07/15 05:07:16;;;;;;;38.30;8.23;;;;;;;24.54;45.56;100561.97;5053024;28;20375;-76
2022/07/15 05:09:42;;;;;;;63.53;10.77;;;;;;;24.41;45.41;100524.38;5053237;28;20017;-76
2022/07/15 05:12:07;;;;;;;55.38;8.55;;;;;;;24.74;45.20;100558.06;5053410;28;20410;-76
2022/07/15 05:14:33;;;;;;;34.63;8.00;;;;;;;24.79;45.19;100566.53;5060249;28;20025;-78
2022/07/15 05:16:58;;;;;;;48.10;9.63;;;;;;;24.81;45.53;100553.44;5060404;28;20119;-76
2022/07/15 05:19:23;;;;;;;48.35;9.07;;;;;;;24.94;45.34;100560.78;5052655;28;20071;-76
2022/07/15 05:21:49;;;;;;;52.60;8.77;;;;;;;25.00;45.26;100559.03;5051092;28;20031;-76
2022/07/15 05:24:14;;;;;;;49.05;9.43;;;;;;;25.11;45.28;100558.34;5052647;28;20036;-77
2022/07/15 05:26:40;;;;;;;32.70;9.00;;;;;;;25.18;44.97;100550.88;5052223;28;20116;-76
2022/07/15 05:29:05;;;;;;;43.28;8.93;;;;;;;25.26;44.98;100551.47;5052312;28;20032;-77
2022/07/15 05:31:30;;;;;;;53.08;8.80;;;;;;;25.31;44.83;100553.56;5050722;28;20025;-77
2022/07/15 05:33:56;;;;;;;58.88;9.68;;;;;;;25.38;44.72;100548.88;5052138;28;20055;-76
2022/07/15 05:36:21;;;;;;;39.78;10.10;;;;;;;25.43;44.55;100551.78;5051818;28;20029;-76
2022/07/15 05:38:47;;;;;;;30.45;8.93;;;;;;;25.59;44.50;100567.78;5051856;28;20110;-76
2022/07/15 05:41:12;;;;;;;53.80;9.73;;;;;;;25.65;44.56;100557.78;5051833;28;20576;-75
2022/07/15 05:43:38;;;;;;;58.97;11.52;;;;;;;25.76;44.28;100563.41;5052153;28;20120;-77
2022/07/15 05:46:04;;;;;;;48.97;9.40;;;;;;;25.83;44.06;100557.84;5052236;28;20463;-76
2022/07/15 05:48:30;;;;;;;52.60;9.18;;;;;;;25.96;43.94;100558.53;5052151;28;20033;-76
2022/07/15 05:50:56;;;;;;;49.30;10.85;;;;;;;26.06;43.96;100551.66;5051795;28;20044;-77
2022/07/15 05:53:22;;;;;;;54.45;10.30;;;;;;;26.16;43.96;100555.63;5051747;28;20422;-76
2022/07/15 05:55:47;;;;;;;55.50;10.55;;;;;;;26.25;43.73;100546.00;5051899;28;20055;-77
2022/07/15 05:58:13;;;;;;;33.83;9.32;;;;;;;26.36;43.81;100553.50;5051614;28;20475;-76
2022/07/15 06:00:38;;;;;;;38.70;9.32;;;;;;;26.45;43.51;100556.81;5051449;28;20037;-76
2022/07/15 06:03:04;;;;;;;53.63;8.32;;;;;;;26.52;42.84;100547.38;5051413;28;20459;-76
2022/07/15 06:05:31;;;;;;;49.50;9.55;;;;;;;26.63;41.94;100540.25;5051133;28;20033;-78
2022/07/15 06:07:58;;;;;;;49.55;8.98;;;;;;;26.73;42.00;100537.75;5051093;28;20083;-77
2022/07/15 06:10:23;;;;;;;36.85;8.25;;;;;;;26.80;41.38;100543.22;5050817;28;20025;-78
2022/07/15 06:12:49;;;;;;;46.88;8.73;;;;;;;26.89;41.31;100537.16;5050844;28;20029;-77
2022/07/15 06:15:14;;;;;;;40.17;8.45;;;;;;;26.97;41.11;100544.28;5050816;28;20110;-77
2022/07/15 06:17:40;;;;;;;35.05;8.30;;;;;;;27.07;41.13;100541.78;5050920;28;20029;-77
2022/07/15 06:20:07;;;;;;;36.33;7.90;;;;;;;27.15;40.71;100540.63;5050868;28;20471;-77
2022/07/15 06:22:32;;;;;;;56.45;7.82;;;;;;;27.25;40.32;100546.41;5050818;28;20021;-78
2022/07/15 06:24:58;;;;;;;46.72;8.40;;;;;;;27.28;39.80;100546.78;5050712;28;20086;-76
2022/07/15 06:27:23;;;;;;;57.08;8.90;;;;;;;27.32;39.85;100533.34;5051182;28;20052;-76
2022/07/15 06:29:50;;;;;;;49.38;8.50;;;;;;;27.40;40.12;100539.34;5051406;28;20025;-78
2022/07/15 06:32:16;;;;;;;38.70;7.65;;;;;;;27.52;39.43;100542.19;5051908;28;20029;-77
2022/07/15 06:34:42;;;;;;;45.95;12.75;;;;;;;27.61;39.50;100532.47;5050862;28;20039;-75
2022/07/15 06:37:08;;;;;;;35.33;8.05;;;;;;;27.63;39.04;100533.06;5050816;28;20692;-75
2022/07/15 06:39:34;;;;;;;48.85;10.00;;;;;;;27.74;39.14;100535.00;5049289;28;20062;-77
2022/07/15 06:42:00;;;;;;;41.67;7.72;;;;;;;27.81;39.05;100535.72;5051104;28;20505;-77
2022/07/15 06:44:26;;;;;;;34.65;9.52;;;;;;;27.82;38.70;100523.59;5050861;28;20033;-76
2022/07/15 06:46:52;;;;;;;52.00;18.73;;;;;;;27.89;38.77;100521.53;5051513;28;20138;-76
2022/07/15 06:49:17;;;;;;;29.55;7.78;;;;;;;28.04;37.54;100524.69;5055240;28;20024;-76
2022/07/15 06:51:42;;;;;;;36.78;5.65;;;;;;;28.08;36.49;100512.06;5060090;28;20358;-76
2022/07/15 06:54:08;;;;;;;32.53;6.47;;;;;;;28.16;36.61;100526.63;5060998;28;20214;-77
2022/07/15 06:56:34;;;;;;;26.58;5.38;;;;;;;28.26;36.39;100535.13;5057756;28;20039;-76
2022/07/15 06:58:59;;;;;;;23.42;7.55;;;;;;;28.30;36.65;100534.41;5055151;28;20041;-77
2022/07/15 07:01:25;;;;;;;40.38;5.03;;;;;;;28.34;36.91;100521.78;5054597;28;20024;-76
2022/07/15 07:03:51;;;;;;;11.35;4.28;;;;;;;28.46;35.21;100532.81;5054726;28;20029;-78
2022/07/15 07:06:16;;;;;;;31.45;4.93;;;;;;;28.50;35.78;100531.25;5054778;28;20033;-76
2022/07/15 07:08:42;;;;;;;21.92;6.03;;;;;;;28.50;35.73;100503.59;5054302;28;20020;-76
2022/07/15 07:11:08;;;;;;;12.43;4.97;;;;;;;28.64;35.13;100518.81;5054966;28;20025;-76
2022/07/15 07:13:33;;;;;;;31.10;3.88;;;;;;;28.77;35.16;100521.34;5054407;28;20031;-77
2022/07/15 07:16:01;;;;;;;17.23;3.90;;;;;;;28.80;35.44;100529.16;5054426;28;20715;-76
2022/07/15 07:18:27;;;;;;;19.65;3.58;;;;;;;28.94;35.45;100525.00;5052938;28;20031;-77
2022/07/15 07:20:52;;;;;;;25.55;3.53;;;;;;;28.97;34.54;100524.50;5053920;28;20021;-76
2022/07/15 07:23:18;;;;;;;17.13;3.53;;;;;;;28.96;34.64;100528.34;5054329;28;20091;-78
2022/07/15 07:25:43;;;;;;;10.38;3.22;;;;;;;29.04;34.81;100527.97;5054284;28;20048;-76
2022/07/15 07:28:09;;;;;;;8.82;2.60;;;;;;;29.09;34.62;100527.22;5054189;28;20032;-76
2022/07/15 07:30:34;;;;;;;16.30;3.22;;;;;;;29.11;34.57;100514.78;5054372;28;20097;-76
2022/07/15 07:32:59;;;;;;;11.93;2.40;;;;;;;29.22;34.58;100521.38;5054192;28;20041;-76
2022/07/15 07:35:25;;;;;;;8.88;2.83;;;;;;;29.28;34.63;100519.56;5054153;28;20032;-77
2022/07/15 07:37:51;;;;;;;8.02;2.28;;;;;;;29.31;34.50;100527.38;5052610;28;20025;-76
2022/07/15 07:40:16;;;;;;;16.45;2.55;;;;;;;29.39;34.57;100524.16;5053585;28;20053;-78
2022/07/15 07:42:43;;;;;;;6.53;2.42;;;;;;;29.49;34.54;100524.34;5053998;28;20047;-76
2022/07/15 07:45:13;;;;;;;9.52;2.15;;;;;;;29.57;34.76;100518.41;5053308;28;20494;-76
2022/07/15 07:47:40;;;;;;;20.08;3.65;;;;;;;29.62;34.67;100516.56;5053506;28;20041;-77
2022/07/15 07:50:08;;;;;;;17.20;5.78;;;;;;;29.68;34.87;100525.78;5053752;28;20032;-77
2022/07/15 07:52:34;;;;;;;10.05;3.45;;;;;;;29.58;34.76;100500.66;5052291;28;20131;-76
2022/07/15 07:54:59;;;;;;;12.82;3.17;;;;;;;29.67;35.00;100513.00;5053513;28;20028;-76
2022/07/15 07:57:24;;;;;;;11.40;4.32;;;;;;;29.77;34.93;100521.50;5053312;28;20056;-76
2022/07/15 07:59:50;;;;;;;12.15;3.00;;;;;;;29.84;34.48;100525.00;5053184;28;20056;-76
2022/07/15 08:02:15;;;;;;;12.48;4.15;;;;;;;29.77;34.46;100520.66;5053436;28;20089;-76
2022/07/15 08:04:41;;;;;;;8.90;3.20;;;;;;;29.62;34.22;100515.72;5053358;28;20171;-76
2022/07/15 08:07:07;;;;;;;11.82;3.80;;;;;;;29.64;33.92;100513.53;5052040;28;20056;-77
2022/07/15 08:09:33;;;;;;;9.20;2.60;;;;;;;29.70;33.11;100516.13;5053339;28;20027;-76
2022/07/15 08:11:58;;;;;;;18.45;3.28;;;;;;;29.82;33.25;100527.16;5053224;28;20037;-77
2022/07/15 08:14:24;;;;;;;10.82;2.40;;;;;;;29.75;32.25;100512.63;5053424;28;20049;-76
2022/07/15 08:16:50;;;;;;;6.13;2.95;;;;;;;29.78;33.44;100516.81;5053398;28;20485;-78
2022/07/15 08:19:17;;;;;;;5.60;2.45;;;;;;;29.84;32.96;100519.44;5053237;28;20059;-77
2022/07/15 08:21:43;;;;;;;10.77;2.70;;;;;;;29.74;32.58;100518.41;5053155;28;20057;-75
2022/07/15 08:24:09;;;;;;;9.43;2.40;;;;;;;29.66;32.28;100511.34;5052176;28;20037;-78
2022/07/15 08:26:35;;;;;;;9.95;2.03;;;;;;;29.69;31.88;100514.44;5054291;28;20033;-77
2022/07/15 08:29:01;;;;;;;6.85;2.70;;;;;;;29.65;32.42;100501.34;5056177;28;20040;-76
2022/07/15 08:31:27;;;;;;;14.35;3.20;;;;;;;29.82;32.05;100513.28;5053744;28;20029;-76
2022/07/15 08:33:53;;;;;;;4.03;1.98;;;;;;;29.88;32.31;100514.19;5053579;28;20175;-77
2022/07/15 08:36:19;;;;;;;5.45;2.50;;;;;;;29.91;33.20;100511.75;5053252;28;20032;-77
2022/07/15 08:38:46;;;;;;;7.60;2.55;;;;;;;30.01;32.98;100506.38;5053148;28;20057;-77
2022/07/15 08:41:13;;;;;;;7.70;2.03;;;;;;;30.04;32.11;100503.09;5052842;28;20451;-76
2022/07/15 08:43:39;;;;;;;16.92;3.53;;;;;;;30.17;33.50;100507.44;5052753;28;20028;-77
2022/07/15 08:46:06;;;;;;;13.77;2.42;;;;;;;30.28;32.89;100509.25;5052859;28;20036;-77
2022/07/15 08:48:37;;;;;;;5.80;2.50;;;;;;;30.36;32.79;100502.44;5052916;28;20436;-76
2022/07/15 08:51:07;;;;;;;7.43;2.47;;;;;;;30.43;33.84;100506.69;5052628;28;20048;-76
2022/07/15 08:53:33;;;;;;;9.95;2.70;;;;;;;30.50;33.06;100507.34;5052716;28;20025;-77
2022/07/15 08:55:59;;;;;;;14.98;2.75;;;;;;;30.47;33.98;100499.53;5052551;28;20039;-76
2022/07/15 08:58:26;;;;;;;6.85;2.63;;;;;;;30.59;33.84;100510.50;5052631;28;20036;-77
2022/07/15 09:00:51;;;;;;;23.02;3.63;;;;;;;30.69;33.55;100505.09;5053205;28;20025;-77
2022/07/15 09:03:17;;;;;;;5.47;2.28;;;;;;;30.64;34.47;100496.72;5052634;28;20033;-77
2022/07/15 09:05:42;;;;;;;15.43;2.75;;;;;;;30.63;35.13;100490.31;5052440;28;20033;-77
2022/07/15 09:08:11;;;;;;;15.43;3.92;;;;;;;30.62;35.27;100496.09;5052626;28;20092;-77
2022/07/15 09:10:50;;;;;;;6.55;2.80;;;;;;;30.52;34.01;100504.34;5051522;28;20454;-77
2022/07/15 09:13:31;;;;;;;11.18;2.75;;;;;;;30.53;35.31;100501.28;5052485;28;20028;-77
2022/07/15 09:16:04;;;;;;;4.95;2.67;;;;;;;30.52;35.91;100507.94;5052404;28;20063;-77
2022/07/15 09:18:33;;;;;;;3.85;2.05;;;;;;;30.53;36.28;100506.84;5052331;28;20040;-77
2022/07/15 09:20:59;;;;;;;4.28;2.03;;;;;;;30.59;36.76;100505.81;5052136;28;20037;-76
2022/07/15 09:23:30;;;;;;;4.55;1.95;;;;;;;30.55;36.94;100504.63;5052324;28;20376;-77
2022/07/15 09:26:19;;;;;;;7.30;2.10;;;;;;;30.47;37.79;100513.44;5052320;28;20036;-76
2022/07/15 09:28:44;;;;;;;3.33;1.73;;;;;;;30.46;37.50;100505.34;5052149;28;20086;-76
2022/07/15 09:34:02;;;;;;;8.57;2.75;;;;;;;30.36;40.41;100510.75;5052130;28;20459;-78
2022/07/15 09:36:31;;;;;;;14.82;2.45;;;;;;;30.47;41.21;100512.59;5052038;28;20036;-77
2022/07/15 09:38:56;;;;;;;8.85;2.38;;;;;;;30.45;41.14;100512.84;5054899;28;20060;-77
2022/07/15 09:41:36;;;;;;;7.97;2.58;;;;;;;30.50;42.04;100512.06;5052063;28;20036;-77
2022/07/15 09:44:19;;;;;;;6.97;2.78;;;;;;;30.34;43.93;100507.38;5052067;28;20031;-77
2022/07/15 09:46:57;;;;;;;11.02;2.88;;;;;;;30.33;44.28;100500.16;5052057;28;20035;-77
2022/07/15 09:49:22;;;;;;;7.18;2.28;;;;;;;30.29;43.96;100501.75;5053314;28;20067;-77
2022/07/15 09:51:57;;;;;;;10.25;2.50;;;;;;;30.28;44.28;100497.31;5056032;28;20542;-77
2022/07/15 09:54:31;;;;;;;9.48;2.22;;;;;;;30.02;45.42;100505.28;5052450;28;20029;-77
2022/07/15 09:57:08;;;;;;;11.77;2.47;;;;;;;30.05;43.36;100499.22;5051985;28;20497;-76
2022/07/15 09:59:35;;;;;;;8.02;1.80;;;;;;;30.11;42.46;100505.69;5052181;28;20051;-77
2022/07/15 10:02:01;;;;;;;4.20;2.13;;;;;;;30.10;42.99;100492.91;5052535;28;20437;-77
2022/07/15 10:04:28;;;;;;;9.95;2.55;;;;;;;30.05;42.68;100506.72;5054383;28;20054;-78
2022/07/15 10:06:55;;;;;;;3.55;1.98;;;;;;;30.02;43.70;100502.53;5059034;28;20031;-77
2022/07/15 10:09:29;;;;;;;9.15;2.20;;;;;;;30.12;44.09;100488.78;5050535;28;20459;-76
2022/07/15 10:11:59;;;;;;;5.35;1.85;;;;;;;30.12;44.34;100499.06;5051852;28;20055;-76
2022/07/15 10:14:43;;;;;;;5.95;1.98;;;;;;;29.85;45.18;100504.47;5050529;28;20029;-76
2022/07/15 10:17:45;;;;;;;3.08;2.13;;;;;;;29.75;46.70;100498.75;5051932;28;20036;-77
2022/07/15 10:20:28;;;;;;;13.68;2.05;;;;;;;29.90;45.70;100490.69;5051528;28;20098;-79
2022/07/15 10:23:06;;;;;;;11.05;2.00;;;;;;;29.81;45.84;100500.50;5051245;28;20037;-77
2022/07/15 10:25:51;;;;;;;6.35;2.20;;;;;;;29.59;48.46;100494.88;5049893;28;20031;-77
2022/07/15 10:28:49;;;;;;;6.80;2.33;;;;;;;29.78;43.57;100494.63;5051397;28;20117;-77
2022/07/15 10:31:20;;;;;;;6.78;1.85;;;;;;;29.94;44.89;100497.38;5050936;28;20048;-76
2022/07/15 10:34:07;;;;;;;9.88;2.38;;;;;;;29.94;45.20;100491.84;5051380;28;20430;-76
2022/07/15 10:36:40;;;;;;;14.13;2.50;;;;;;;30.09;46.63;100489.28;5050847;28;20109;-76
2022/07/15 10:39:08;;;;;;;13.43;2.40;;;;;;;30.07;46.82;100485.94;5050502;28;20099;-77
2022/07/15 10:41:58;;;;;;;15.25;2.10;;;;;;;29.86;47.80;100488.66;5050284;28;20569;-78
2022/07/15 10:44:26;;;;;;;2.92;1.80;;;;;;;29.88;45.86;100479.00;5051080;28;20033;-76
2022/07/15 10:47:13;;;;;;;9.30;1.70;;;;;;;29.99;45.06;100489.16;5050908;28;20032;-77
2022/07/15 10:49:49;;;;;;;3.25;1.50;;;;;;;30.01;46.28;100486.97;5050492;28;20039;-78
2022/07/15 10:52:18;;;;;;;4.43;1.65;;;;;;;30.15;47.97;100479.94;5051253;28;20099;-76
2022/07/15 10:54:55;;;;;;;14.55;2.13;;;;;;;30.17;48.25;100486.09;5050985;28;20033;-76
2022/07/15 10:57:41;;;;;;;12.73;3.30;;;;;;;29.72;49.50;100487.31;5049538;28;20061;-77
2022/07/15 11:00:31;;;;;;;11.75;2.25;;;;;;;29.45;51.35;100481.59;5051203;28;20068;-76
2022/07/15 11:03:17;;;;;;;13.02;2.95;;;;;;;29.63;52.28;100478.59;5051284;28;20029;-77
2022/07/15 11:05:52;;;;;;;7.97;3.08;;;;;;;29.59;53.07;100483.81;5051287;28;20028;-77
2022/07/15 11:08:53;;;;;;;11.98;2.72;;;;;;;29.64;51.94;100478.31;5050691;28;20040;-76
2022/07/15 11:11:19;;;;;;;5.22;2.20;;;;;;;29.79;53.18;100483.25;5048961;28;20143;-77
2022/07/15 11:13:47;;;;;;;9.25;3.22;;;;;;;29.80;52.07;100479.41;5050498;28;20447;-76
2022/07/15 11:16:19;;;;;;;10.55;3.28;;;;;;;29.71;51.27;100475.38;5050507;28;20032;-77
2022/07/15 11:18:45;;;;;;;8.48;2.22;;;;;;;29.70;51.46;100480.09;5049081;28;20114;-76
2022/07/15 11:21:12;;;;;;;25.48;3.85;;;;;;;29.72;52.16;100477.06;5050466;28;20505;-76
2022/07/15 11:23:38;;;;;;;6.72;2.17;;;;;;;29.80;52.10;100473.84;5048984;28;20033;-77
2022/07/15 11:26:03;;;;;;;10.23;2.20;;;;;;;29.88;52.42;100484.53;5050849;28;20035;-76
2022/07/15 11:28:29;;;;;;;9.95;2.42;;;;;;;29.89;52.64;100477.91;5050630;28;20029;-77
2022/07/15 11:30:55;;;;;;;22.30;3.17;;;;;;;30.09;51.82;100469.06;5050647;28;20029;-76